Impacts METAR Board
IDs:

KSAN - San Diego Intl Arpt, CA, US

Updated at: 1200 UTC 16 Sep 2019
Potential Impact None Slight Moderate High
Time 16/00Z 16/01Z 16/02Z 16/03Z 16/04Z 16/05Z 16/06Z 16/07Z 16/08Z 16/09Z 16/10Z 16/11Z 16/12Z
Temp77 76 73 73 71 71 70 70 70 69 69 70 70
Dewpt68 68 68 68 68 68 67 68 67 67 67 67 67
Altim29.86 29.86 29.86 29.87 29.89 29.89 29.90 29.90 29.90 29.91 29.91 29.90 29.91
VIS10 10 10 10 10 10 10 10 10 10 9 10 10
CIG250 250 250 250 250 250 -- -- -- -- 9 11 11
CoverBKNBKNBKNBKNBKNBKNSCTSCTFEWSCTBKNBKNOVC
FltCatVFRVFRVFRVFRVFRVFRVFRVFRVFRVFRIFRMVFRMVFR
WX--------------------------
WDir3003103002903103100310310029000
WSpd9 7 4 5 4 3 0 3 3 0 3 0 0
WGst-- -- -- -- -- -- -- -- -- -- -- -- --
Raw hourly METARs
KSAN 152351Z 30009KT 10SM FEW005 BKN250 25/20 A2986 RMK AO2 SLP111 T02500200 10289 20250 55006
KSAN 160051Z 31007KT 10SM FEW007 BKN250 24/20 A2986 RMK AO2 SLP111 T02440200
KSAN 160151Z 30004KT 10SM FEW007 BKN250 23/20 A2986 RMK AO2 SLP112 T02280200
KSAN 160251Z 29005KT 10SM FEW006 BKN250 23/20 A2987 RMK AO2 SLP114 T02280200 53004
KSAN 160351Z 31004KT 10SM FEW006 BKN250 22/20 A2989 RMK AO2 SLP120 T02170200
KSAN 160451Z 31003KT 10SM BKN250 22/20 A2989 RMK AO2 SLP123 T02170200
KSAN 160551Z 00000KT 10SM FEW010 SCT250 21/19 A2990 RMK AO2 SLP125 T02110194 10250 20211 51010
KSAN 160651Z 31003KT 10SM FEW010 SCT250 21/20 A2990 RMK AO2 SLP125 T02110200
KSAN 160751Z 31003KT 10SM FEW010 FEW250 21/19 A2990 RMK AO2 SLP126 T02110194 402940183
KSAN 160851Z 00000KT 10SM SCT010 SCT250 21/19 A2991 RMK AO2 SLP127 T02060194 53002
KSAN 160951Z 29003KT 9SM BKN009 BKN250 21/19 A2991 RMK AO2 SLP127 T02060194
KSAN 161051Z 00000KT 10SM BKN011 21/19 A2990 RMK AO2 SLP126 T02110194
KSAN 161151Z 00000KT 10SM OVC011 21/19 A2991 RMK AO2 SLP126 T02110194 10211 20206 55001



Page loaded:  12:45 UTC  |   05:45 AM Pacific  |   06:45 AM Mountain  |   07:45 AM Central  |   08:45 AM Eastern

 

ADVISORIES

FORECASTS

FORECASTS

OBSERVATIONS

USER TOOLS

ABOUT US